sensor_id;sensor_type;location;lat;lon;timestamp;P1;durP1;ratioP1;P2;durP2;ratioP2
23590;SDS011;11973;52.098;7.582;2022-08-05T00:02:08;3.22;;;3.03;;
23590;SDS011;11973;52.098;7.582;2022-08-05T00:04:33;2.72;;;2.63;;
23590;SDS011;11973;52.098;7.582;2022-08-05T00:06:59;3.58;;;3.47;;
23590;SDS011;11973;52.098;7.582;2022-08-05T00:09:25;3.85;;;3.58;;
23590;SDS011;11973;52.098;7.582;2022-08-05T00:11:51;3.20;;;3.00;;
23590;SDS011;11973;52.098;7.582;2022-08-05T00:14:17;3.80;;;3.53;;
23590;SDS011;11973;52.098;7.582;2022-08-05T00:16:46;4.13;;;3.30;;
23590;SDS011;11973;52.098;7.582;2022-08-05T00:19:11;4.00;;;3.20;;
23590;SDS011;11973;52.098;7.582;2022-08-05T00:21:37;3.40;;;3.15;;
23590;SDS011;11973;52.098;7.582;2022-08-05T00:24:03;3.80;;;3.60;;
23590;SDS011;11973;52.098;7.582;2022-08-05T00:26:29;5.40;;;3.17;;
23590;SDS011;11973;52.098;7.582;2022-08-05T00:28:55;4.07;;;3.65;;
23590;SDS011;11973;52.098;7.582;2022-08-05T00:31:21;4.15;;;3.95;;
23590;SDS011;11973;52.098;7.582;2022-08-05T00:33:47;3.65;;;3.53;;
23590;SDS011;11973;52.098;7.582;2022-08-05T00:36:12;5.55;;;3.85;;
23590;SDS011;11973;52.098;7.582;2022-08-05T00:38:38;4.18;;;3.88;;
23590;SDS011;11973;52.098;7.582;2022-08-05T00:41:04;5.00;;;4.60;;
23590;SDS011;11973;52.098;7.582;2022-08-05T00:43:32;4.63;;;4.18;;
23590;SDS011;11973;52.098;7.582;2022-08-05T00:45:59;4.60;;;4.40;;
23590;SDS011;11973;52.098;7.582;2022-08-05T00:48:24;13.07;;;4.60;;
23590;SDS011;11973;52.098;7.582;2022-08-05T00:50:50;4.60;;;4.20;;
23590;SDS011;11973;52.098;7.582;2022-08-05T00:53:17;4.03;;;3.83;;
23590;SDS011;11973;52.098;7.582;2022-08-05T00:55:46;4.40;;;4.10;;
23590;SDS011;11973;52.098;7.582;2022-08-05T00:58:13;5.55;;;4.28;;
23590;SDS011;11973;52.098;7.582;2022-08-05T01:00:43;4.78;;;4.55;;
23590;SDS011;11973;52.098;7.582;2022-08-05T01:03:09;4.68;;;4.38;;
23590;SDS011;11973;52.098;7.582;2022-08-05T01:05:36;4.53;;;4.32;;
23590;SDS011;11973;52.098;7.582;2022-08-05T01:08:02;4.93;;;4.55;;
23590;SDS011;11973;52.098;7.582;2022-08-05T01:10:29;6.35;;;4.78;;
23590;SDS011;11973;52.098;7.582;2022-08-05T01:13:02;5.40;;;4.93;;
23590;SDS011;11973;52.098;7.582;2022-08-05T01:15:37;5.35;;;4.88;;
23590;SDS011;11973;52.098;7.582;2022-08-05T01:18:09;5.97;;;5.53;;
23590;SDS011;11973;52.098;7.582;2022-08-05T01:20:50;6.22;;;5.35;;
23590;SDS011;11973;52.098;7.582;2022-08-05T01:23:43;5.55;;;5.20;;
23590;SDS011;11973;52.098;7.582;2022-08-05T01:28:56;8.18;;;5.82;;
23590;SDS011;11973;52.098;7.582;2022-08-05T01:34:06;7.32;;;6.20;;
23590;SDS011;11973;52.098;7.582;2022-08-05T01:36:35;6.80;;;6.18;;
23590;SDS011;11973;52.098;7.582;2022-08-05T01:39:14;12.32;;;6.70;;
23590;SDS011;11973;52.098;7.582;2022-08-05T01:41:41;6.13;;;5.72;;
23590;SDS011;11973;52.098;7.582;2022-08-05T01:44:09;6.05;;;5.75;;
23590;SDS011;11973;52.098;7.582;2022-08-05T01:46:36;7.38;;;6.70;;
23590;SDS011;11973;52.098;7.582;2022-08-05T01:49:05;7.00;;;6.40;;
23590;SDS011;11973;52.098;7.582;2022-08-05T01:51:32;7.50;;;6.78;;
23590;SDS011;11973;52.098;7.582;2022-08-05T01:54:00;7.13;;;6.53;;
23590;SDS011;11973;52.098;7.582;2022-08-05T01:56:29;7.38;;;6.75;;
23590;SDS011;11973;52.098;7.582;2022-08-05T01:58:59;8.52;;;7.22;;
23590;SDS011;11973;52.098;7.582;2022-08-05T02:01:28;7.15;;;6.55;;
23590;SDS011;11973;52.098;7.582;2022-08-05T02:03:55;8.15;;;7.38;;
23590;SDS011;11973;52.098;7.582;2022-08-05T02:06:22;7.85;;;7.40;;
23590;SDS011;11973;52.098;7.582;2022-08-05T02:08:48;8.05;;;7.22;;
23590;SDS011;11973;52.098;7.582;2022-08-05T02:11:14;8.45;;;7.10;;
23590;SDS011;11973;52.098;7.582;2022-08-05T02:16:23;8.48;;;6.95;;
23590;SDS011;11973;52.098;7.582;2022-08-05T02:18:57;7.63;;;6.93;;
23590;SDS011;11973;52.098;7.582;2022-08-05T02:21:33;7.72;;;7.20;;
23590;SDS011;11973;52.098;7.582;2022-08-05T02:24:05;9.73;;;7.43;;
23590;SDS011;11973;52.098;7.582;2022-08-05T02:26:46;8.13;;;7.35;;
23590;SDS011;11973;52.098;7.582;2022-08-05T02:29:16;7.85;;;7.35;;
23590;SDS011;11973;52.098;7.582;2022-08-05T02:31:45;11.70;;;7.55;;
23590;SDS011;11973;52.098;7.582;2022-08-05T02:34:14;8.75;;;7.43;;
23590;SDS011;11973;52.098;7.582;2022-08-05T02:36:47;8.07;;;7.22;;
23590;SDS011;11973;52.098;7.582;2022-08-05T02:39:18;7.80;;;7.13;;
23590;SDS011;11973;52.098;7.582;2022-08-05T02:41:46;7.88;;;7.28;;
23590;SDS011;11973;52.098;7.582;2022-08-05T02:44:12;9.35;;;7.13;;
23590;SDS011;11973;52.098;7.582;2022-08-05T02:46:39;9.07;;;7.70;;
23590;SDS011;11973;52.098;7.582;2022-08-05T02:49:08;8.85;;;8.05;;
23590;SDS011;11973;52.098;7.582;2022-08-05T02:51:36;9.13;;;8.20;;
23590;SDS011;11973;52.098;7.582;2022-08-05T02:54:04;8.50;;;7.38;;
23590;SDS011;11973;52.098;7.582;2022-08-05T02:56:31;9.02;;;7.97;;
23590;SDS011;11973;52.098;7.582;2022-08-05T02:58:58;8.32;;;7.53;;
23590;SDS011;11973;52.098;7.582;2022-08-05T03:01:25;8.43;;;7.47;;
23590;SDS011;11973;52.098;7.582;2022-08-05T03:03:57;8.02;;;7.28;;
23590;SDS011;11973;52.098;7.582;2022-08-05T03:06:26;8.00;;;7.30;;
23590;SDS011;11973;52.098;7.582;2022-08-05T03:08:52;10.38;;;7.95;;
23590;SDS011;11973;52.098;7.582;2022-08-05T03:11:20;8.82;;;8.00;;
23590;SDS011;11973;52.098;7.582;2022-08-05T03:13:48;7.80;;;7.28;;
23590;SDS011;11973;52.098;7.582;2022-08-05T03:16:15;7.25;;;6.75;;
23590;SDS011;11973;52.098;7.582;2022-08-05T03:18:41;7.90;;;7.05;;
23590;SDS011;11973;52.098;7.582;2022-08-05T03:21:07;7.97;;;7.30;;
23590;SDS011;11973;52.098;7.582;2022-08-05T03:23:33;8.27;;;7.57;;
23590;SDS011;11973;52.098;7.582;2022-08-05T03:26:01;8.15;;;7.35;;
23590;SDS011;11973;52.098;7.582;2022-08-05T03:28:28;10.13;;;7.50;;
23590;SDS011;11973;52.098;7.582;2022-08-05T03:30:55;7.32;;;6.63;;
23590;SDS011;11973;52.098;7.582;2022-08-05T03:33:21;8.20;;;7.30;;
23590;SDS011;11973;52.098;7.582;2022-08-05T03:35:47;7.55;;;6.82;;
23590;SDS011;11973;52.098;7.582;2022-08-05T03:38:15;9.52;;;7.38;;
23590;SDS011;11973;52.098;7.582;2022-08-05T03:40:42;7.95;;;7.13;;
23590;SDS011;11973;52.098;7.582;2022-08-05T03:43:10;8.57;;;7.70;;
23590;SDS011;11973;52.098;7.582;2022-08-05T03:45:36;8.52;;;7.18;;
23590;SDS011;11973;52.098;7.582;2022-08-05T03:48:02;9.70;;;7.35;;
23590;SDS011;11973;52.098;7.582;2022-08-05T03:50:32;9.10;;;7.45;;
23590;SDS011;11973;52.098;7.582;2022-08-05T03:53:07;7.50;;;7.05;;
23590;SDS011;11973;52.098;7.582;2022-08-05T03:55:40;8.02;;;7.10;;
23590;SDS011;11973;52.098;7.582;2022-08-05T03:58:15;8.68;;;7.07;;
23590;SDS011;11973;52.098;7.582;2022-08-05T04:00:43;11.32;;;7.60;;
23590;SDS011;11973;52.098;7.582;2022-08-05T04:03:10;9.55;;;7.65;;
23590;SDS011;11973;52.098;7.582;2022-08-05T04:05:37;8.38;;;7.50;;
23590;SDS011;11973;52.098;7.582;2022-08-05T04:08:08;8.80;;;7.70;;
23590;SDS011;11973;52.098;7.582;2022-08-05T04:10:35;9.73;;;7.70;;
23590;SDS011;11973;52.098;7.582;2022-08-05T04:13:02;11.07;;;7.35;;
23590;SDS011;11973;52.098;7.582;2022-08-05T05:01:22;10.07;;;8.80;;
23590;SDS011;11973;52.098;7.582;2022-08-05T05:03:48;11.68;;;8.95;;
23590;SDS011;11973;52.098;7.582;2022-08-05T05:06:13;9.25;;;8.20;;
23590;SDS011;11973;52.098;7.582;2022-08-05T05:08:39;9.73;;;8.75;;
23590;SDS011;11973;52.098;7.582;2022-08-05T05:11:05;11.48;;;8.95;;
23590;SDS011;11973;52.098;7.582;2022-08-05T20:08:18;0.40;;;0.40;;
23590;SDS011;11973;52.098;7.582;2022-08-05T20:10:44;0.77;;;0.40;;
23590;SDS011;11973;52.098;7.582;2022-08-05T20:13:10;3.10;;;0.43;;
23590;SDS011;11973;52.098;7.582;2022-08-05T20:15:36;0.32;;;0.28;;
23590;SDS011;11973;52.098;7.582;2022-08-05T20:18:02;0.32;;;0.32;;
23590;SDS011;11973;52.098;7.582;2022-08-05T20:20:29;0.57;;;0.30;;
23590;SDS011;11973;52.098;7.582;2022-08-05T20:22:54;0.90;;;0.20;;
23590;SDS011;11973;52.098;7.582;2022-08-05T20:25:20;0.30;;;0.30;;
23590;SDS011;11973;52.098;7.582;2022-08-05T20:27:46;1.17;;;0.25;;
23590;SDS011;11973;52.098;7.582;2022-08-05T20:30:11;0.20;;;0.20;;
23590;SDS011;11973;52.098;7.582;2022-08-05T20:32:37;0.40;;;0.40;;
23590;SDS011;11973;52.098;7.582;2022-08-05T20:35:03;0.30;;;0.30;;
23590;SDS011;11973;52.098;7.582;2022-08-05T20:37:29;0.30;;;0.30;;
23590;SDS011;11973;52.098;7.582;2022-08-05T20:39:55;2.30;;;0.25;;
23590;SDS011;11973;52.098;7.582;2022-08-05T20:42:20;0.40;;;0.40;;
23590;SDS011;11973;52.098;7.582;2022-08-05T20:44:46;0.32;;;0.32;;
23590;SDS011;11973;52.098;7.582;2022-08-05T20:47:12;0.57;;;0.40;;
23590;SDS011;11973;52.098;7.582;2022-08-05T20:49:38;0.73;;;0.38;;
23590;SDS011;11973;52.098;7.582;2022-08-05T20:52:04;0.30;;;0.30;;
23590;SDS011;11973;52.098;7.582;2022-08-05T20:54:29;0.73;;;0.30;;
23590;SDS011;11973;52.098;7.582;2022-08-05T20:56:55;0.30;;;0.30;;
23590;SDS011;11973;52.098;7.582;2022-08-05T20:59:21;0.40;;;0.40;;
23590;SDS011;11973;52.098;7.582;2022-08-05T21:01:47;0.95;;;0.40;;
23590;SDS011;11973;52.098;7.582;2022-08-05T21:04:15;0.50;;;0.50;;
23590;SDS011;11973;52.098;7.582;2022-08-05T21:06:42;0.60;;;0.60;;
23590;SDS011;11973;52.098;7.582;2022-08-05T21:09:07;1.08;;;0.43;;
23590;SDS011;11973;52.098;7.582;2022-08-05T21:11:33;0.40;;;0.40;;
23590;SDS011;11973;52.098;7.582;2022-08-05T21:13:59;1.10;;;1.05;;
23590;SDS011;11973;52.098;7.582;2022-08-05T21:16:25;0.90;;;0.90;;
23590;SDS011;11973;52.098;7.582;2022-08-05T21:18:52;1.23;;;0.50;;
23590;SDS011;11973;52.098;7.582;2022-08-05T21:21:18;0.75;;;0.60;;
23590;SDS011;11973;52.098;7.582;2022-08-05T21:23:44;0.40;;;0.40;;
23590;SDS011;11973;52.098;7.582;2022-08-05T21:26:12;1.10;;;0.35;;
23590;SDS011;11973;52.098;7.582;2022-08-05T21:28:38;0.30;;;0.30;;
23590;SDS011;11973;52.098;7.582;2022-08-05T21:31:04;0.75;;;0.70;;
23590;SDS011;11973;52.098;7.582;2022-08-05T21:33:30;1.00;;;1.00;;
23590;SDS011;11973;52.098;7.582;2022-08-05T21:35:56;0.40;;;0.40;;
23590;SDS011;11973;52.098;7.582;2022-08-05T21:38:22;1.10;;;1.10;;
23590;SDS011;11973;52.098;7.582;2022-08-05T21:40:47;0.68;;;0.68;;
23590;SDS011;11973;52.098;7.582;2022-08-05T21:43:13;0.50;;;0.50;;
23590;SDS011;11973;52.098;7.582;2022-08-05T21:45:39;0.30;;;0.30;;
23590;SDS011;11973;52.098;7.582;2022-08-05T21:48:05;2.22;;;2.15;;
23590;SDS011;11973;52.098;7.582;2022-08-05T21:50:31;1.48;;;1.38;;
23590;SDS011;11973;52.098;7.582;2022-08-05T21:52:57;0.80;;;0.73;;
23590;SDS011;11973;52.098;7.582;2022-08-05T21:55:23;1.65;;;0.55;;
23590;SDS011;11973;52.098;7.582;2022-08-05T21:57:48;0.60;;;0.60;;
23590;SDS011;11973;52.098;7.582;2022-08-05T22:00:14;1.42;;;1.42;;
23590;SDS011;11973;52.098;7.582;2022-08-05T22:02:40;3.28;;;1.40;;
23590;SDS011;11973;52.098;7.582;2022-08-05T22:05:06;1.02;;;1.02;;
23590;SDS011;11973;52.098;7.582;2022-08-05T22:07:32;1.02;;;1.02;;
23590;SDS011;11973;52.098;7.582;2022-08-05T22:09:58;0.70;;;0.40;;
23590;SDS011;11973;52.098;7.582;2022-08-05T22:12:24;0.65;;;0.65;;
23590;SDS011;11973;52.098;7.582;2022-08-05T22:14:49;4.57;;;2.00;;
23590;SDS011;11973;52.098;7.582;2022-08-05T22:17:15;0.90;;;0.90;;
23590;SDS011;11973;52.098;7.582;2022-08-05T22:19:41;2.05;;;0.60;;
23590;SDS011;11973;52.098;7.582;2022-08-05T22:22:07;9.88;;;1.63;;
23590;SDS011;11973;52.098;7.582;2022-08-05T22:24:33;3.25;;;3.25;;
23590;SDS011;11973;52.098;7.582;2022-08-05T22:27:17;2.80;;;2.70;;
23590;SDS011;11973;52.098;7.582;2022-08-05T22:30:01;2.00;;;1.00;;
23590;SDS011;11973;52.098;7.582;2022-08-05T22:32:27;1.10;;;0.77;;
23590;SDS011;11973;52.098;7.582;2022-08-05T22:34:53;0.80;;;0.60;;
23590;SDS011;11973;52.098;7.582;2022-08-05T22:37:19;3.30;;;0.70;;
23590;SDS011;11973;52.098;7.582;2022-08-05T22:39:44;1.73;;;1.63;;
23590;SDS011;11973;52.098;7.582;2022-08-05T22:42:10;0.60;;;0.60;;
23590;SDS011;11973;52.098;7.582;2022-08-05T22:44:35;0.60;;;0.60;;
23590;SDS011;11973;52.098;7.582;2022-08-05T22:47:01;0.70;;;0.70;;
23590;SDS011;11973;52.098;7.582;2022-08-05T22:49:27;1.20;;;1.20;;
23590;SDS011;11973;52.098;7.582;2022-08-05T22:51:53;1.00;;;1.00;;
23590;SDS011;11973;52.098;7.582;2022-08-05T22:54:18;0.80;;;0.80;;
23590;SDS011;11973;52.098;7.582;2022-08-05T22:56:44;1.08;;;0.80;;
23590;SDS011;11973;52.098;7.582;2022-08-05T22:59:09;0.65;;;0.65;;
23590;SDS011;11973;52.098;7.582;2022-08-05T23:01:35;1.13;;;0.80;;
23590;SDS011;11973;52.098;7.582;2022-08-05T23:04:01;1.05;;;0.90;;
23590;SDS011;11973;52.098;7.582;2022-08-05T23:06:26;1.55;;;0.90;;
23590;SDS011;11973;52.098;7.582;2022-08-05T23:08:52;1.08;;;0.95;;
23590;SDS011;11973;52.098;7.582;2022-08-05T23:11:18;1.00;;;0.80;;
23590;SDS011;11973;52.098;7.582;2022-08-05T23:13:43;0.70;;;0.70;;
23590;SDS011;11973;52.098;7.582;2022-08-05T23:16:09;2.08;;;0.75;;
23590;SDS011;11973;52.098;7.582;2022-08-05T23:18:35;0.77;;;0.77;;
23590;SDS011;11973;52.098;7.582;2022-08-05T23:21:00;1.42;;;0.95;;
23590;SDS011;11973;52.098;7.582;2022-08-05T23:23:26;1.10;;;1.10;;
23590;SDS011;11973;52.098;7.582;2022-08-05T23:25:52;2.15;;;1.20;;
23590;SDS011;11973;52.098;7.582;2022-08-05T23:28:17;0.90;;;0.90;;
23590;SDS011;11973;52.098;7.582;2022-08-05T23:30:43;1.48;;;1.40;;
23590;SDS011;11973;52.098;7.582;2022-08-05T23:33:12;1.27;;;1.27;;
23590;SDS011;11973;52.098;7.582;2022-08-05T23:35:38;1.23;;;1.23;;
23590;SDS011;11973;52.098;7.582;2022-08-05T23:38:03;1.52;;;1.50;;
23590;SDS011;11973;52.098;7.582;2022-08-05T23:40:29;1.25;;;1.15;;
23590;SDS011;11973;52.098;7.582;2022-08-05T23:42:55;1.42;;;1.33;;
23590;SDS011;11973;52.098;7.582;2022-08-05T23:45:20;1.83;;;1.73;;
23590;SDS011;11973;52.098;7.582;2022-08-05T23:47:46;2.00;;;1.25;;
23590;SDS011;11973;52.098;7.582;2022-08-05T23:50:12;1.10;;;1.10;;
23590;SDS011;11973;52.098;7.582;2022-08-05T23:52:37;1.45;;;1.35;;
23590;SDS011;11973;52.098;7.582;2022-08-05T23:55:04;1.30;;;1.30;;
23590;SDS011;11973;52.098;7.582;2022-08-05T23:57:32;1.85;;;1.40;;
23590;SDS011;11973;52.098;7.582;2022-08-05T23:59:59;1.70;;;1.60;;
